sensor_id;sensor_type;location;lat;lon;timestamp;pressure;altitude;pressure_sealevel;temperature;humidity
32747;BME280;19118;50.860;13.662;2023-03-19T00:01:02;96647.44;;;4.01;100.00
32747;BME280;19118;50.860;13.662;2023-03-19T00:06:03;96649.88;;;4.03;100.00
32747;BME280;19118;50.860;13.662;2023-03-19T00:11:08;96650.06;;;4.09;100.00
32747;BME280;19118;50.860;13.662;2023-03-19T00:16:09;96646.44;;;4.11;100.00
32747;BME280;19118;50.860;13.662;2023-03-19T00:21:10;96649.88;;;4.11;100.00
32747;BME280;19118;50.860;13.662;2023-03-19T00:26:10;96648.56;;;4.07;100.00
32747;BME280;19118;50.860;13.662;2023-03-19T00:31:13;96636.63;;;4.13;100.00
32747;BME280;19118;50.860;13.662;2023-03-19T00:36:15;96638.25;;;4.05;100.00
32747;BME280;19118;50.860;13.662;2023-03-19T00:41:16;96639.06;;;4.06;100.00
32747;BME280;19118;50.860;13.662;2023-03-19T00:46:18;96641.38;;;4.09;100.00
32747;BME280;19118;50.860;13.662;2023-03-19T00:51:18;96646.28;;;4.20;100.00
32747;BME280;19118;50.860;13.662;2023-03-19T00:56:19;96639.41;;;4.19;100.00
32747;BME280;19118;50.860;13.662;2023-03-19T01:01:20;96643.66;;;4.12;100.00
32747;BME280;19118;50.860;13.662;2023-03-19T01:06:21;96643.53;;;3.97;100.00
32747;BME280;19118;50.860;13.662;2023-03-19T01:11:21;96641.38;;;3.93;100.00
32747;BME280;19118;50.860;13.662;2023-03-19T01:16:21;96648.91;;;3.96;100.00
32747;BME280;19118;50.860;13.662;2023-03-19T01:21:22;96636.66;;;3.88;100.00
32747;BME280;19118;50.860;13.662;2023-03-19T01:26:23;96629.47;;;3.82;100.00
32747;BME280;19118;50.860;13.662;2023-03-19T01:31:28;96630.94;;;3.76;100.00
32747;BME280;19118;50.860;13.662;2023-03-19T01:36:45;96621.97;;;3.63;100.00
32747;BME280;19118;50.860;13.662;2023-03-19T01:41:49;96625.22;;;3.57;100.00
32747;BME280;19118;50.860;13.662;2023-03-19T01:47:28;96625.72;;;3.52;100.00
32747;BME280;19118;50.860;13.662;2023-03-19T01:52:45;96618.00;;;3.50;100.00
32747;BME280;19118;50.860;13.662;2023-03-19T01:57:56;96628.00;;;3.55;100.00
32747;BME280;19118;50.860;13.662;2023-03-19T02:03:09;96627.03;;;3.64;100.00
32747;BME280;19118;50.860;13.662;2023-03-19T02:08:23;96629.81;;;3.63;100.00
32747;BME280;19118;50.860;13.662;2023-03-19T02:13:25;96619.47;;;3.61;100.00
32747;BME280;19118;50.860;13.662;2023-03-19T02:18:26;96619.47;;;3.61;100.00
32747;BME280;19118;50.860;13.662;2023-03-19T02:23:45;96629.28;;;3.59;100.00
32747;BME280;19118;50.860;13.662;2023-03-19T02:28:51;96625.69;;;3.60;100.00
32747;BME280;19118;50.860;13.662;2023-03-19T02:39:01;96626.66;;;3.51;100.00
32747;BME280;19118;50.860;13.662;2023-03-19T02:44:02;96623.75;;;3.46;100.00
32747;BME280;19118;50.860;13.662;2023-03-19T02:49:04;96618.66;;;3.36;100.00
32747;BME280;19118;50.860;13.662;2023-03-19T02:54:04;96626.00;;;3.25;100.00
32747;BME280;19118;50.860;13.662;2023-03-19T02:59:05;96629.91;;;3.12;100.00
32747;BME280;19118;50.860;13.662;2023-03-19T03:04:05;96629.22;;;3.02;100.00
32747;BME280;19118;50.860;13.662;2023-03-19T03:09:06;96639.97;;;2.99;100.00
32747;BME280;19118;50.860;13.662;2023-03-19T03:14:07;96645.66;;;2.86;100.00
32747;BME280;19118;50.860;13.662;2023-03-19T03:19:07;96642.88;;;2.88;100.00
32747;BME280;19118;50.860;13.662;2023-03-19T03:24:08;96632.78;;;2.85;100.00
32747;BME280;19118;50.860;13.662;2023-03-19T03:29:10;96650.22;;;2.84;100.00
32747;BME280;19118;50.860;13.662;2023-03-19T03:34:10;96637.66;;;2.88;100.00
32747;BME280;19118;50.860;13.662;2023-03-19T03:39:11;96637.81;;;2.86;100.00
32747;BME280;19118;50.860;13.662;2023-03-19T03:44:12;96648.25;;;2.78;100.00
32747;BME280;19118;50.860;13.662;2023-03-19T03:49:14;96645.47;;;2.80;100.00
32747;BME280;19118;50.860;13.662;2023-03-19T03:54:15;96655.56;;;2.75;100.00
32747;BME280;19118;50.860;13.662;2023-03-19T03:59:15;96658.47;;;2.72;100.00
32747;BME280;19118;50.860;13.662;2023-03-19T04:04:16;96656.84;;;2.71;100.00
32747;BME280;19118;50.860;13.662;2023-03-19T04:09:16;96660.75;;;2.67;100.00
32747;BME280;19118;50.860;13.662;2023-03-19T04:14:17;96653.25;;;2.63;100.00
32747;BME280;19118;50.860;13.662;2023-03-19T04:19:17;96651.28;;;2.66;100.00
32747;BME280;19118;50.860;13.662;2023-03-19T04:24:18;96653.84;;;2.57;100.00
32747;BME280;19118;50.860;13.662;2023-03-19T04:29:18;96648.63;;;2.49;100.00
32747;BME280;19118;50.860;13.662;2023-03-19T04:34:19;96655.88;;;2.38;100.00
32747;BME280;19118;50.860;13.662;2023-03-19T04:39:20;96656.97;;;2.27;100.00
32747;BME280;19118;50.860;13.662;2023-03-19T04:44:21;96661.16;;;2.20;100.00
32747;BME280;19118;50.860;13.662;2023-03-19T04:49:23;96656.84;;;2.11;100.00
32747;BME280;19118;50.860;13.662;2023-03-19T04:54:25;96661.41;;;2.09;100.00
32747;BME280;19118;50.860;13.662;2023-03-19T04:59:26;96656.13;;;2.00;100.00
32747;BME280;19118;50.860;13.662;2023-03-19T05:04:27;96655.94;;;1.94;100.00
32747;BME280;19118;50.860;13.662;2023-03-19T05:09:33;96654.25;;;1.85;100.00
32747;BME280;19118;50.860;13.662;2023-03-19T05:14:34;96661.47;;;1.73;100.00
32747;BME280;19118;50.860;13.662;2023-03-19T05:19:41;96659.19;;;1.70;100.00
32747;BME280;19118;50.860;13.662;2023-03-19T05:24:42;96651.56;;;1.77;100.00
32747;BME280;19118;50.860;13.662;2023-03-19T05:29:43;96657.28;;;1.80;100.00
32747;BME280;19118;50.860;13.662;2023-03-19T05:35:03;96659.00;;;1.89;100.00
32747;BME280;19118;50.860;13.662;2023-03-19T05:40:07;96663.13;;;2.00;100.00
32747;BME280;19118;50.860;13.662;2023-03-19T05:45:10;96670.41;;;2.14;100.00
32747;BME280;19118;50.860;13.662;2023-03-19T05:50:22;96671.34;;;2.31;100.00
32747;BME280;19118;50.860;13.662;2023-03-19T05:55:45;96663.03;;;2.61;100.00
32747;BME280;19118;50.860;13.662;2023-03-19T06:00:45;96670.97;;;2.86;100.00
32747;BME280;19118;50.860;13.662;2023-03-19T06:05:48;96665.81;;;3.10;100.00
32747;BME280;19118;50.860;13.662;2023-03-19T06:11:19;96667.81;;;3.33;100.00
32747;BME280;19118;50.860;13.662;2023-03-19T06:16:26;96674.22;;;3.55;100.00
32747;BME280;19118;50.860;13.662;2023-03-19T06:21:28;96679.16;;;3.74;100.00
32747;BME280;19118;50.860;13.662;2023-03-19T06:26:32;96671.97;;;4.00;100.00
32747;BME280;19118;50.860;13.662;2023-03-19T06:31:33;96669.63;;;4.30;100.00
32747;BME280;19118;50.860;13.662;2023-03-19T06:36:44;96667.91;;;4.61;100.00
32747;BME280;19118;50.860;13.662;2023-03-19T06:41:47;96668.63;;;4.94;100.00
32747;BME280;19118;50.860;13.662;2023-03-19T06:46:51;96672.38;;;5.31;100.00
32747;BME280;19118;50.860;13.662;2023-03-19T06:51:52;96683.78;;;5.69;100.00
32747;BME280;19118;50.860;13.662;2023-03-19T06:56:52;96680.13;;;6.01;100.00
32747;BME280;19118;50.860;13.662;2023-03-19T07:01:53;96685.63;;;6.44;100.00
32747;BME280;19118;50.860;13.662;2023-03-19T07:06:53;96688.56;;;6.79;100.00
32747;BME280;19118;50.860;13.662;2023-03-19T07:11:53;96697.16;;;7.17;100.00
32747;BME280;19118;50.860;13.662;2023-03-19T07:16:53;96709.75;;;7.57;100.00
32747;BME280;19118;50.860;13.662;2023-03-19T07:21:54;96711.00;;;7.98;100.00
32747;BME280;19118;50.860;13.662;2023-03-19T07:26:54;96720.78;;;8.46;100.00
32747;BME280;19118;50.860;13.662;2023-03-19T07:31:56;96721.72;;;8.95;100.00
32747;BME280;19118;50.860;13.662;2023-03-19T07:36:56;96728.25;;;9.47;100.00
32747;BME280;19118;50.860;13.662;2023-03-19T07:41:57;96725.13;;;9.78;100.00
32747;BME280;19118;50.860;13.662;2023-03-19T07:46:57;96719.16;;;10.24;100.00
32747;BME280;19118;50.860;13.662;2023-03-19T07:51:58;96718.72;;;10.93;100.00
32747;BME280;19118;50.860;13.662;2023-03-19T07:56:58;96733.97;;;11.62;85.25
32747;BME280;19118;50.860;13.662;2023-03-19T08:01:58;96749.97;;;12.25;76.45
32747;BME280;19118;50.860;13.662;2023-03-19T08:06:59;96753.47;;;12.75;73.72
32747;BME280;19118;50.860;13.662;2023-03-19T08:12:00;96753.44;;;13.00;71.27
32747;BME280;19118;50.860;13.662;2023-03-19T08:17:00;96767.00;;;13.35;71.07
32747;BME280;19118;50.860;13.662;2023-03-19T08:22:01;96772.09;;;13.19;71.91
32747;BME280;19118;50.860;13.662;2023-03-19T08:27:01;96773.75;;;13.56;72.40
32747;BME280;19118;50.860;13.662;2023-03-19T08:32:01;96776.53;;;13.25;72.23
32747;BME280;19118;50.860;13.662;2023-03-19T08:37:02;96772.94;;;13.56;72.29
32747;BME280;19118;50.860;13.662;2023-03-19T08:42:02;96779.50;;;13.72;71.57
32747;BME280;19118;50.860;13.662;2023-03-19T08:47:03;96777.66;;;13.72;70.66
32747;BME280;19118;50.860;13.662;2023-03-19T08:52:03;96783.00;;;14.02;68.39
32747;BME280;19118;50.860;13.662;2023-03-19T08:57:04;96784.63;;;14.33;67.17
32747;BME280;19118;50.860;13.662;2023-03-19T09:02:04;96788.25;;;14.80;64.84
32747;BME280;19118;50.860;13.662;2023-03-19T09:07:04;96786.78;;;14.96;61.26
32747;BME280;19118;50.860;13.662;2023-03-19T09:12:07;96793.28;;;15.24;60.33
32747;BME280;19118;50.860;13.662;2023-03-19T09:17:08;96788.97;;;15.46;61.04
32747;BME280;19118;50.860;13.662;2023-03-19T09:22:09;96789.31;;;15.50;61.48
32747;BME280;19118;50.860;13.662;2023-03-19T09:27:09;96791.88;;;15.68;59.17
32747;BME280;19118;50.860;13.662;2023-03-19T09:32:09;96794.78;;;15.43;58.79
32747;BME280;19118;50.860;13.662;2023-03-19T09:37:10;96798.25;;;15.55;58.86
32747;BME280;19118;50.860;13.662;2023-03-19T09:42:37;96799.06;;;15.09;59.73
32747;BME280;19118;50.860;13.662;2023-03-19T09:47:40;96799.53;;;15.18;60.72
32747;BME280;19118;50.860;13.662;2023-03-19T09:53:00;96778.06;;;15.59;60.17
32747;BME280;19118;50.860;13.662;2023-03-19T09:58:09;96786.75;;;15.78;59.19
32747;BME280;19118;50.860;13.662;2023-03-19T10:18:34;96781.44;;;15.66;59.17
32747;BME280;19118;50.860;13.662;2023-03-19T10:23:49;96787.09;;;15.82;58.40
32747;BME280;19118;50.860;13.662;2023-03-19T10:29:08;96797.09;;;15.75;59.15
32747;BME280;19118;50.860;13.662;2023-03-19T10:34:44;96791.13;;;15.84;58.53
32747;BME280;19118;50.860;13.662;2023-03-19T10:39:44;96792.75;;;15.85;58.53
32747;BME280;19118;50.860;13.662;2023-03-19T10:44:49;96788.50;;;16.13;57.95
32747;BME280;19118;50.860;13.662;2023-03-19T10:49:50;96785.38;;;16.44;57.82
32747;BME280;19118;50.860;13.662;2023-03-19T10:54:56;96775.31;;;16.80;57.76
32747;BME280;19118;50.860;13.662;2023-03-19T11:00:04;96782.19;;;16.93;56.62
32747;BME280;19118;50.860;13.662;2023-03-19T11:10:16;96786.56;;;16.99;55.17
32747;BME280;19118;50.860;13.662;2023-03-19T11:15:22;96778.81;;;17.53;54.90
32747;BME280;19118;50.860;13.662;2023-03-19T11:20:35;96774.00;;;17.71;54.43
32747;BME280;19118;50.860;13.662;2023-03-19T11:25:41;96771.72;;;17.63;54.75
32747;BME280;19118;50.860;13.662;2023-03-19T11:31:10;96770.66;;;17.64;54.29
32747;BME280;19118;50.860;13.662;2023-03-19T11:36:20;96774.56;;;17.35;56.13
32747;BME280;19118;50.860;13.662;2023-03-19T11:41:29;96769.69;;;17.32;56.56
32747;BME280;19118;50.860;13.662;2023-03-19T11:46:43;96770.75;;;17.31;58.29
32747;BME280;19118;50.860;13.662;2023-03-19T11:51:58;96757.00;;;16.55;59.92
32747;BME280;19118;50.860;13.662;2023-03-19T11:57:08;96764.94;;;16.67;61.42
32747;BME280;19118;50.860;13.662;2023-03-19T12:23:37;96765.63;;;17.46;56.77
32747;BME280;19118;50.860;13.662;2023-03-19T12:28:55;96768.13;;;16.80;57.13
32747;BME280;19118;50.860;13.662;2023-03-19T12:34:06;96778.78;;;16.07;58.36
32747;BME280;19118;50.860;13.662;2023-03-19T12:39:14;96780.66;;;15.94;58.65
32747;BME280;19118;50.860;13.662;2023-03-19T12:44:22;96769.28;;;16.27;58.48
32747;BME280;19118;50.860;13.662;2023-03-19T12:49:32;96763.78;;;15.89;61.43
32747;BME280;19118;50.860;13.662;2023-03-19T12:54:39;96767.84;;;16.20;59.47
32747;BME280;19118;50.860;13.662;2023-03-19T13:00:04;96772.94;;;15.81;60.73
32747;BME280;19118;50.860;13.662;2023-03-19T13:10:12;96770.16;;;16.16;61.56
32747;BME280;19118;50.860;13.662;2023-03-19T13:15:22;96777.16;;;16.34;61.04
32747;BME280;19118;50.860;13.662;2023-03-19T13:25:40;96782.50;;;16.06;60.60
32747;BME280;19118;50.860;13.662;2023-03-19T13:31:00;96780.06;;;15.64;60.96
32747;BME280;19118;50.860;13.662;2023-03-19T13:36:03;96772.91;;;15.29;63.33
32747;BME280;19118;50.860;13.662;2023-03-19T13:41:22;96783.75;;;15.16;66.42
32747;BME280;19118;50.860;13.662;2023-03-19T13:46:29;96773.56;;;15.36;64.34
32747;BME280;19118;50.860;13.662;2023-03-19T13:51:30;96778.56;;;15.33;64.20
32747;BME280;19118;50.860;13.662;2023-03-19T13:57:01;96784.81;;;15.27;64.31
32747;BME280;19118;50.860;13.662;2023-03-19T14:07:24;96780.66;;;15.19;64.54
32747;BME280;19118;50.860;13.662;2023-03-19T14:12:34;96784.19;;;14.66;66.47
32747;BME280;19118;50.860;13.662;2023-03-19T14:23:50;96778.44;;;15.04;65.36
32747;BME280;19118;50.860;13.662;2023-03-19T14:28:17;96775.66;;;15.11;64.27
32747;BME280;19118;50.860;13.662;2023-03-19T14:38:39;96761.75;;;15.32;65.84
32747;BME280;19118;50.860;13.662;2023-03-19T14:54:37;96767.44;;;15.01;70.89
32747;BME280;19118;50.860;13.662;2023-03-19T14:59:40;96763.16;;;15.00;71.87
32747;BME280;19118;50.860;13.662;2023-03-19T15:04:43;96773.06;;;14.69;73.68
32747;BME280;19118;50.860;13.662;2023-03-19T15:09:45;96780.84;;;14.41;75.25
32747;BME280;19118;50.860;13.662;2023-03-19T15:20:23;96770.91;;;13.88;80.14
32747;BME280;19118;50.860;13.662;2023-03-19T15:25:25;96779.06;;;13.75;81.99
32747;BME280;19118;50.860;13.662;2023-03-19T15:30:26;96776.56;;;13.43;87.87
32747;BME280;19118;50.860;13.662;2023-03-19T15:35:32;96774.38;;;13.15;93.38
32747;BME280;19118;50.860;13.662;2023-03-19T15:40:35;96769.06;;;12.90;100.00
32747;BME280;19118;50.860;13.662;2023-03-19T15:45:37;96765.16;;;12.68;100.00
32747;BME280;19118;50.860;13.662;2023-03-19T15:50:41;96765.59;;;12.65;100.00
32747;BME280;19118;50.860;13.662;2023-03-19T15:55:43;96760.50;;;12.38;100.00
32747;BME280;19118;50.860;13.662;2023-03-19T16:00:43;96763.91;;;12.14;100.00
32747;BME280;19118;50.860;13.662;2023-03-19T16:05:50;96761.81;;;11.84;100.00
32747;BME280;19118;50.860;13.662;2023-03-19T16:10:50;96767.00;;;11.53;100.00
32747;BME280;19118;50.860;13.662;2023-03-19T16:15:59;96762.41;;;11.28;100.00
32747;BME280;19118;50.860;13.662;2023-03-19T16:21:11;96766.25;;;11.32;100.00
32747;BME280;19118;50.860;13.662;2023-03-19T16:26:15;96764.25;;;11.21;100.00
32747;BME280;19118;50.860;13.662;2023-03-19T16:31:19;96771.19;;;11.09;100.00
32747;BME280;19118;50.860;13.662;2023-03-19T16:36:20;96789.13;;;10.94;100.00
32747;BME280;19118;50.860;13.662;2023-03-19T16:41:29;96777.72;;;10.87;100.00
32747;BME280;19118;50.860;13.662;2023-03-19T16:46:32;96784.25;;;10.77;100.00
32747;BME280;19118;50.860;13.662;2023-03-19T16:51:33;96787.69;;;10.58;100.00
32747;BME280;19118;50.860;13.662;2023-03-19T16:56:34;96797.25;;;10.59;100.00
32747;BME280;19118;50.860;13.662;2023-03-19T17:01:35;96798.25;;;10.45;100.00
32747;BME280;19118;50.860;13.662;2023-03-19T17:06:35;96804.94;;;10.41;100.00
32747;BME280;19118;50.860;13.662;2023-03-19T17:11:38;96813.88;;;10.27;100.00
32747;BME280;19118;50.860;13.662;2023-03-19T17:16:39;96814.28;;;10.30;100.00
32747;BME280;19118;50.860;13.662;2023-03-19T17:21:47;96807.38;;;10.29;100.00
32747;BME280;19118;50.860;13.662;2023-03-19T17:26:50;96816.44;;;10.07;100.00
32747;BME280;19118;50.860;13.662;2023-03-19T17:31:52;96820.69;;;10.01;100.00
32747;BME280;19118;50.860;13.662;2023-03-19T17:36:55;96817.00;;;9.96;100.00
32747;BME280;19118;50.860;13.662;2023-03-19T17:41:56;96821.88;;;9.92;100.00
32747;BME280;19118;50.860;13.662;2023-03-19T17:46:56;96823.50;;;9.86;100.00
32747;BME280;19118;50.860;13.662;2023-03-19T17:51:57;96826.91;;;9.80;100.00
32747;BME280;19118;50.860;13.662;2023-03-19T17:56:58;96830.34;;;9.74;100.00
32747;BME280;19118;50.860;13.662;2023-03-19T18:01:58;96825.78;;;9.61;100.00
32747;BME280;19118;50.860;13.662;2023-03-19T18:06:58;96827.03;;;9.66;100.00
32747;BME280;19118;50.860;13.662;2023-03-19T18:11:59;96824.56;;;9.57;100.00
32747;BME280;19118;50.860;13.662;2023-03-19T18:16:59;96833.09;;;9.59;100.00
32747;BME280;19118;50.860;13.662;2023-03-19T18:21:59;96826.53;;;9.42;100.00
32747;BME280;19118;50.860;13.662;2023-03-19T18:27:00;96837.28;;;9.41;100.00
32747;BME280;19118;50.860;13.662;2023-03-19T18:32:06;96834.19;;;9.37;100.00
32747;BME280;19118;50.860;13.662;2023-03-19T18:37:16;96832.09;;;9.26;100.00
32747;BME280;19118;50.860;13.662;2023-03-19T18:42:16;96839.19;;;9.25;100.00
32747;BME280;19118;50.860;13.662;2023-03-19T18:47:17;96833.34;;;9.30;100.00
32747;BME280;19118;50.860;13.662;2023-03-19T18:52:17;96829.31;;;9.34;100.00
32747;BME280;19118;50.860;13.662;2023-03-19T18:57:18;96843.25;;;9.28;100.00
32747;BME280;19118;50.860;13.662;2023-03-19T19:02:25;96842.56;;;9.13;100.00
32747;BME280;19118;50.860;13.662;2023-03-19T19:07:27;96836.66;;;9.11;100.00
32747;BME280;19118;50.860;13.662;2023-03-19T19:12:28;96843.69;;;9.03;100.00
32747;BME280;19118;50.860;13.662;2023-03-19T19:17:29;96846.94;;;9.05;100.00
32747;BME280;19118;50.860;13.662;2023-03-19T19:22:29;96847.72;;;8.99;100.00
32747;BME280;19118;50.860;13.662;2023-03-19T19:27:30;96857.06;;;9.02;100.00
32747;BME280;19118;50.860;13.662;2023-03-19T19:32:30;96853.00;;;8.99;100.00
32747;BME280;19118;50.860;13.662;2023-03-19T19:37:31;96861.88;;;9.20;100.00
32747;BME280;19118;50.860;13.662;2023-03-19T19:42:31;96862.13;;;9.25;100.00
32747;BME280;19118;50.860;13.662;2023-03-19T19:47:32;96856.84;;;9.25;100.00
32747;BME280;19118;50.860;13.662;2023-03-19T19:52:34;96856.34;;;9.15;100.00
32747;BME280;19118;50.860;13.662;2023-03-19T19:57:36;96852.22;;;9.05;100.00
32747;BME280;19118;50.860;13.662;2023-03-19T20:02:37;96862.56;;;9.00;100.00
32747;BME280;19118;50.860;13.662;2023-03-19T20:07:38;96862.31;;;8.95;100.00
32747;BME280;19118;50.860;13.662;2023-03-19T20:12:39;96871.59;;;8.91;100.00
32747;BME280;19118;50.860;13.662;2023-03-19T20:17:42;96863.50;;;8.93;100.00
32747;BME280;19118;50.860;13.662;2023-03-19T20:22:42;96870.69;;;9.05;100.00
32747;BME280;19118;50.860;13.662;2023-03-19T20:27:44;96866.63;;;9.03;100.00
32747;BME280;19118;50.860;13.662;2023-03-19T20:32:46;96875.72;;;9.00;100.00
32747;BME280;19118;50.860;13.662;2023-03-19T20:37:48;96878.56;;;8.99;100.00
32747;BME280;19118;50.860;13.662;2023-03-19T20:42:50;96878.56;;;8.99;100.00
32747;BME280;19118;50.860;13.662;2023-03-19T20:47:50;96879.28;;;8.86;100.00
32747;BME280;19118;50.860;13.662;2023-03-19T20:52:52;96887.69;;;8.75;100.00
32747;BME280;19118;50.860;13.662;2023-03-19T20:57:54;96883.66;;;8.58;100.00
32747;BME280;19118;50.860;13.662;2023-03-19T21:02:56;96893.13;;;8.52;100.00
32747;BME280;19118;50.860;13.662;2023-03-19T21:07:56;96886.16;;;8.44;100.00
32747;BME280;19118;50.860;13.662;2023-03-19T21:12:58;96887.78;;;8.45;100.00
32747;BME280;19118;50.860;13.662;2023-03-19T21:17:59;96890.81;;;8.42;100.00
32747;BME280;19118;50.860;13.662;2023-03-19T21:28:23;96881.91;;;8.29;100.00
32747;BME280;19118;50.860;13.662;2023-03-19T21:33:27;96883.94;;;8.12;100.00
32747;BME280;19118;50.860;13.662;2023-03-19T21:38:28;96878.94;;;8.17;100.00
32747;BME280;19118;50.860;13.662;2023-03-19T21:43:34;96895.22;;;8.06;100.00
32747;BME280;19118;50.860;13.662;2023-03-19T21:48:36;96882.78;;;8.00;100.00
32747;BME280;19118;50.860;13.662;2023-03-19T21:53:37;96885.97;;;7.95;100.00
32747;BME280;19118;50.860;13.662;2023-03-19T21:58:37;96891.31;;;8.02;100.00
32747;BME280;19118;50.860;13.662;2023-03-19T22:03:38;96885.59;;;7.98;100.00
32747;BME280;19118;50.860;13.662;2023-03-19T22:08:38;96886.09;;;7.72;100.00
32747;BME280;19118;50.860;13.662;2023-03-19T22:13:39;96883.81;;;7.54;100.00
32747;BME280;19118;50.860;13.662;2023-03-19T22:18:40;96889.44;;;7.37;100.00
32747;BME280;19118;50.860;13.662;2023-03-19T22:23:40;96898.72;;;7.24;100.00
32747;BME280;19118;50.860;13.662;2023-03-19T22:28:41;96895.31;;;7.39;100.00
32747;BME280;19118;50.860;13.662;2023-03-19T22:33:41;96885.53;;;7.62;100.00
32747;BME280;19118;50.860;13.662;2023-03-19T22:38:41;96897.88;;;7.76;100.00
32747;BME280;19118;50.860;13.662;2023-03-19T22:43:44;96900.03;;;7.87;100.00
32747;BME280;19118;50.860;13.662;2023-03-19T22:48:47;96900.69;;;8.04;100.00
32747;BME280;19118;50.860;13.662;2023-03-19T22:53:49;96885.75;;;8.11;100.00
32747;BME280;19118;50.860;13.662;2023-03-19T22:58:50;96886.19;;;8.15;100.00
32747;BME280;19118;50.860;13.662;2023-03-19T23:03:51;96892.22;;;8.09;100.00
32747;BME280;19118;50.860;13.662;2023-03-19T23:08:51;96893.94;;;8.02;100.00
32747;BME280;19118;50.860;13.662;2023-03-19T23:13:52;96894.41;;;7.91;100.00
32747;BME280;19118;50.860;13.662;2023-03-19T23:18:52;96896.16;;;7.83;100.00
32747;BME280;19118;50.860;13.662;2023-03-19T23:23:52;96888.88;;;7.85;100.00
32747;BME280;19118;50.860;13.662;2023-03-19T23:28:54;96890.25;;;7.81;100.00
32747;BME280;19118;50.860;13.662;2023-03-19T23:33:55;96886.53;;;7.61;100.00
32747;BME280;19118;50.860;13.662;2023-03-19T23:38:56;96890.78;;;7.33;100.00
32747;BME280;19118;50.860;13.662;2023-03-19T23:43:59;96894.41;;;7.32;100.00
32747;BME280;19118;50.860;13.662;2023-03-19T23:49:01;96890.13;;;7.30;100.00
32747;BME280;19118;50.860;13.662;2023-03-19T23:54:01;96893.41;;;7.47;100.00
32747;BME280;19118;50.860;13.662;2023-03-19T23:59:01;96894.88;;;7.50;100.00
